createdAt,value
2022-11-21T00:01:28.159Z,2.98
2022-11-21T00:03:55.713Z,2.94
2022-11-21T00:06:23.868Z,2.92
2022-11-21T00:08:52.068Z,2.94
2022-11-21T00:11:19.270Z,2.94
2022-11-21T00:13:46.834Z,2.95
2022-11-21T00:16:17.515Z,2.94
2022-11-21T00:18:45.216Z,2.93
2022-11-21T00:21:16.426Z,2.88
2022-11-21T00:23:45.846Z,2.93
2022-11-21T00:26:15.432Z,2.88
2022-11-21T00:28:45.347Z,2.87
2022-11-21T00:31:24.240Z,2.80
2022-11-21T00:33:51.718Z,2.77
2022-11-21T00:36:18.928Z,2.77
2022-11-21T00:38:46.430Z,2.77
2022-11-21T00:41:13.644Z,2.62
2022-11-21T00:43:41.146Z,2.61
2022-11-21T00:46:08.354Z,2.48
2022-11-21T00:48:35.828Z,2.45
2022-11-21T00:51:03.095Z,2.34
2022-11-21T00:53:30.932Z,2.35
2022-11-21T00:55:59.674Z,2.34
2022-11-21T00:58:27.770Z,2.29
2022-11-21T01:01:13.820Z,2.15
2022-11-21T01:03:42.363Z,2.21
2022-11-21T01:06:13.598Z,2.17
2022-11-21T01:08:44.270Z,2.20
2022-11-21T01:11:15.823Z,2.12
2022-11-21T01:13:44.014Z,2.13
2022-11-21T01:16:38.671Z,1.95
2022-11-21T01:19:06.583Z,1.95
2022-11-21T01:21:33.835Z,1.93
2022-11-21T01:24:02.912Z,1.86
2022-11-21T01:26:33.104Z,1.84
2022-11-21T01:29:00.899Z,1.86
2022-11-21T01:31:30.474Z,1.72
2022-11-21T01:34:00.162Z,1.80
2022-11-21T01:36:33.755Z,1.74
2022-11-21T01:39:05.573Z,1.77
2022-11-21T01:41:37.236Z,1.80
2022-11-21T01:44:10.602Z,1.68
2022-11-21T01:46:37.815Z,1.59
2022-11-21T01:49:26.207Z,1.61
2022-11-21T01:51:58.131Z,1.63
2022-11-21T01:54:36.458Z,1.58
2022-11-21T01:57:34.020Z,1.55
2022-11-21T02:00:18.167Z,1.53
2022-11-21T02:02:55.397Z,1.39
2022-11-21T02:05:32.757Z,1.42
2022-11-21T02:08:09.974Z,1.44
2022-11-21T02:10:45.829Z,1.37
2022-11-21T02:13:13.018Z,1.36
2022-11-21T02:15:40.592Z,1.26
2022-11-21T02:18:10.244Z,1.30
2022-11-21T02:20:41.835Z,1.31
2022-11-21T02:23:21.560Z,1.23
2022-11-21T02:25:51.188Z,1.20
2022-11-21T02:28:23.644Z,1.19
2022-11-21T02:30:51.512Z,1.21
2022-11-21T02:33:19.203Z,1.23
2022-11-21T02:36:00.575Z,1.22
2022-11-21T02:38:38.875Z,1.26
2022-11-21T02:41:26.696Z,1.27
2022-11-21T02:44:05.709Z,1.31
2022-11-21T02:46:36.261Z,1.33
2022-11-21T02:49:08.465Z,1.35
2022-11-21T02:51:35.930Z,1.36
2022-11-21T02:54:03.145Z,1.40
2022-11-21T02:56:30.569Z,1.32
2022-11-21T02:58:57.897Z,1.37
2022-11-21T03:01:25.400Z,1.33
2022-11-21T03:03:52.544Z,1.35
2022-11-21T03:06:20.024Z,1.39
2022-11-21T03:08:47.178Z,1.42
2022-11-21T03:11:14.622Z,1.38
2022-11-21T03:13:41.757Z,1.32
2022-11-21T03:16:09.275Z,1.16
2022-11-21T03:18:36.390Z,1.26
2022-11-21T03:21:03.954Z,1.18
2022-11-21T03:23:31.132Z,1.22
2022-11-21T03:26:00.321Z,1.27
2022-11-21T03:28:27.458Z,1.21
2022-11-21T03:30:55.064Z,1.24
2022-11-21T03:33:22.183Z,1.22
2022-11-21T03:35:49.682Z,1.20
2022-11-21T03:38:16.870Z,1.17
2022-11-21T03:40:44.417Z,1.16
2022-11-21T03:43:11.577Z,1.07
2022-11-21T03:45:39.087Z,1.10
2022-11-21T03:48:06.614Z,1.08
2022-11-21T03:50:34.077Z,1.17
2022-11-21T03:53:01.156Z,1.07
2022-11-21T03:55:28.586Z,1.10
2022-11-21T03:57:55.796Z,1.04
2022-11-21T04:00:23.356Z,1.05
2022-11-21T04:02:50.491Z,1.06
2022-11-21T04:05:17.987Z,0.95
2022-11-21T04:07:46.398Z,0.96
2022-11-21T04:10:14.130Z,0.98
2022-11-21T04:12:41.350Z,0.99
2022-11-21T04:15:13.409Z,0.96
2022-11-21T04:17:40.955Z,0.96
2022-11-21T04:20:09.818Z,0.93
2022-11-21T04:22:37.028Z,0.85
2022-11-21T04:25:04.908Z,0.89
2022-11-21T04:27:32.085Z,0.88
2022-11-21T04:29:59.509Z,0.94
2022-11-21T04:32:26.701Z,0.83
2022-11-21T04:34:54.359Z,0.86
2022-11-21T04:37:21.732Z,0.96
2022-11-21T04:39:49.234Z,0.90
2022-11-21T04:42:16.395Z,0.99
2022-11-21T04:44:43.832Z,0.95
2022-11-21T04:47:11.102Z,1.04
2022-11-21T04:49:38.611Z,0.96
2022-11-21T04:52:05.907Z,0.81
2022-11-21T04:54:33.343Z,0.82
2022-11-21T04:57:01.334Z,0.83
2022-11-21T04:59:28.870Z,0.85
2022-11-21T05:01:55.995Z,0.81
2022-11-21T05:04:23.587Z,0.57
2022-11-21T05:06:50.834Z,0.73
2022-11-21T05:09:19.033Z,0.70
2022-11-21T05:12:04.813Z,0.69
2022-11-21T05:14:32.336Z,0.65
2022-11-21T05:16:59.632Z,0.67
2022-11-21T05:19:27.045Z,0.74
2022-11-21T05:21:54.254Z,0.67
2022-11-21T05:24:21.716Z,0.69
2022-11-21T05:26:48.895Z,0.64
2022-11-21T05:29:16.461Z,0.65
2022-11-21T05:31:43.633Z,0.67
2022-11-21T05:34:11.112Z,0.64
2022-11-21T05:36:38.293Z,0.60
2022-11-21T05:39:06.038Z,0.66
2022-11-21T05:41:33.577Z,0.69
2022-11-21T05:44:01.053Z,0.65
2022-11-21T05:46:28.278Z,0.59
2022-11-21T05:48:55.956Z,0.59
2022-11-21T05:51:23.101Z,0.60
2022-11-21T05:53:50.760Z,0.66
2022-11-21T05:56:19.791Z,0.69
2022-11-21T05:58:47.449Z,0.68
2022-11-21T06:01:15.850Z,0.72
2022-11-21T06:03:43.417Z,0.73
2022-11-21T06:06:14.698Z,0.79
2022-11-21T06:08:46.877Z,0.87
2022-11-21T06:11:16.758Z,0.83
2022-11-21T06:13:45.223Z,0.91
2022-11-21T06:16:19.766Z,0.98
2022-11-21T06:18:58.630Z,1.01
2022-11-21T06:21:29.371Z,0.96
2022-11-21T06:23:59.174Z,1.03
2022-11-21T06:26:27.757Z,1.01
2022-11-21T06:28:55.483Z,1.07
2022-11-21T06:31:26.933Z,1.10
2022-11-21T06:33:59.499Z,1.26
2022-11-21T06:36:27.371Z,1.22
2022-11-21T06:38:56.374Z,1.28
2022-11-21T06:41:27.230Z,1.37
2022-11-21T06:43:54.846Z,1.51
2022-11-21T06:46:22.061Z,1.65
2022-11-21T06:48:49.618Z,1.69
2022-11-21T06:51:23.624Z,1.63
2022-11-21T06:53:57.832Z,1.49
2022-11-21T06:56:30.770Z,1.47
2022-11-21T06:58:59.002Z,1.33
2022-11-21T07:01:26.929Z,1.37
2022-11-21T07:03:55.300Z,1.43
2022-11-21T07:06:23.599Z,1.43
2022-11-21T07:11:44.455Z,1.53
2022-11-21T07:14:12.141Z,1.63
2022-11-21T07:16:39.525Z,1.71
2022-11-21T07:19:07.003Z,1.93
2022-11-21T07:21:34.434Z,2.08
2022-11-21T07:24:02.507Z,2.16
2022-11-21T07:26:29.713Z,2.37
2022-11-21T07:28:58.633Z,2.59
2022-11-21T07:31:25.905Z,2.80
2022-11-21T07:33:53.419Z,2.91
2022-11-21T07:36:20.661Z,2.98
2022-11-21T07:38:48.188Z,3.17
2022-11-21T07:41:15.427Z,3.49
2022-11-21T07:43:42.939Z,3.56
2022-11-21T07:46:10.136Z,3.83
2022-11-21T07:48:37.774Z,3.82
2022-11-21T07:51:06.083Z,3.97
2022-11-21T07:53:33.755Z,3.98
2022-11-21T07:56:01.224Z,4.13
2022-11-21T07:58:28.864Z,4.26
2022-11-21T08:00:56.648Z,4.10
2022-11-21T08:03:25.444Z,4.31
2022-11-21T08:05:52.735Z,4.38
2022-11-21T08:08:20.335Z,4.45
2022-11-21T08:10:47.648Z,4.53
2022-11-21T08:13:15.381Z,4.59
2022-11-21T08:15:42.619Z,4.64
2022-11-21T08:18:21.016Z,4.59
2022-11-21T08:20:48.614Z,4.57
2022-11-21T08:23:16.488Z,4.62
2022-11-21T08:25:45.281Z,4.62
2022-11-21T08:28:13.658Z,4.70
2022-11-21T08:30:41.237Z,4.91
2022-11-21T08:33:09.176Z,5.10
2022-11-21T08:35:40.298Z,5.34
2022-11-21T08:38:08.621Z,5.44
2022-11-21T08:40:36.636Z,5.53
2022-11-21T08:43:09.958Z,5.64
2022-11-21T08:45:39.739Z,5.46
2022-11-21T08:48:11.917Z,5.68
2022-11-21T08:50:39.495Z,6.04
2022-11-21T08:53:07.016Z,6.17
2022-11-21T08:55:34.184Z,6.43
2022-11-21T08:58:01.780Z,6.60
2022-11-21T09:00:29.150Z,6.55
2022-11-21T09:02:56.642Z,6.58
2022-11-21T09:05:23.922Z,6.98
2022-11-21T09:07:58.493Z,7.62
2022-11-21T09:10:27.007Z,8.01
2022-11-21T09:13:00.031Z,8.24
2022-11-21T09:15:45.622Z,8.38
2022-11-21T09:18:13.339Z,8.57
2022-11-21T09:20:44.637Z,8.60
2022-11-21T09:23:15.876Z,8.95
2022-11-21T09:25:43.807Z,9.19
2022-11-21T09:28:14.141Z,9.44
2022-11-21T09:30:42.783Z,8.20
2022-11-21T09:33:19.206Z,8.38
2022-11-21T09:35:46.431Z,8.70
2022-11-21T09:38:13.975Z,9.95
2022-11-21T09:40:48.538Z,10.85
2022-11-21T09:43:38.381Z,11.44
2022-11-21T09:46:20.965Z,10.69
2022-11-21T09:49:05.221Z,10.31
2022-11-21T09:51:34.579Z,10.36
2022-11-21T09:54:19.293Z,10.36
2022-11-21T09:56:48.727Z,9.84
2022-11-21T09:59:21.971Z,9.75
2022-11-21T10:01:49.383Z,10.03
2022-11-21T10:04:17.094Z,9.70
2022-11-21T10:07:04.934Z,9.36
2022-11-21T10:10:10.496Z,9.36
2022-11-21T10:13:17.673Z,9.35
2022-11-21T10:16:06.503Z,9.80
2022-11-21T10:19:09.928Z,10.14
2022-11-21T10:21:53.805Z,12.23
2022-11-21T10:24:35.647Z,13.76
2022-11-21T10:27:36.801Z,16.52
2022-11-21T10:30:19.750Z,20.46
2022-11-21T10:32:54.831Z,21.98
2022-11-21T10:35:45.975Z,21.93
2022-11-21T10:38:26.128Z,20.21
2022-11-21T10:41:05.383Z,19.28
2022-11-21T10:44:35.650Z,19.18
2022-11-21T10:47:13.097Z,18.79
2022-11-21T10:49:43.639Z,17.22
2022-11-21T10:52:23.624Z,16.59
2022-11-21T10:55:15.164Z,15.59
2022-11-21T10:57:51.370Z,14.91
2022-11-21T11:00:28.009Z,14.25
2022-11-21T11:03:05.599Z,13.53
2022-11-21T11:05:37.275Z,12.41
2022-11-21T11:08:08.673Z,11.62
2022-11-21T11:11:02.091Z,10.75
2022-11-21T11:13:50.432Z,10.35
2022-11-21T11:16:21.985Z,10.11
2022-11-21T11:19:35.370Z,9.71
2022-11-21T11:22:29.577Z,10.02
2022-11-21T11:25:00.503Z,10.16
2022-11-21T11:27:29.931Z,10.47
2022-11-21T11:29:57.169Z,10.49
2022-11-21T11:32:25.088Z,10.35
2022-11-21T11:35:21.968Z,9.84
2022-11-21T11:38:04.163Z,9.35
2022-11-21T11:40:42.248Z,9.28
2022-11-21T11:44:10.217Z,8.88
2022-11-21T11:47:30.593Z,8.71
2022-11-21T11:50:17.003Z,9.00
2022-11-21T11:53:11.433Z,8.84
2022-11-21T11:55:57.537Z,8.85
2022-11-21T11:58:49.436Z,8.85
2022-11-21T12:01:36.648Z,8.80
2022-11-21T12:04:27.667Z,8.62
2022-11-21T12:08:19.792Z,8.47
2022-11-21T12:10:18.348Z,8.28
2022-11-21T12:13:05.576Z,8.03
2022-11-21T12:15:51.158Z,8.09
2022-11-21T12:18:18.587Z,8.08
2022-11-21T12:21:18.780Z,8.33
2022-11-21T12:23:56.141Z,8.63
2022-11-21T12:27:19.471Z,8.86
2022-11-21T12:30:07.326Z,9.19
2022-11-21T12:32:45.321Z,10.37
2022-11-21T12:35:49.828Z,10.61
2022-11-21T12:38:31.625Z,10.19
2022-11-21T12:41:46.754Z,9.56
2022-11-21T12:44:35.380Z,9.17
2022-11-21T12:48:03.827Z,8.82
2022-11-21T12:51:08.943Z,8.30
2022-11-21T12:54:19.569Z,8.33
2022-11-21T12:57:02.943Z,8.15
2022-11-21T12:59:40.012Z,8.01
2022-11-21T13:02:31.669Z,8.02
2022-11-21T13:05:02.944Z,8.07
2022-11-21T13:07:33.411Z,7.90
2022-11-21T13:10:03.605Z,7.95
2022-11-21T13:12:45.975Z,7.65
2022-11-21T13:15:19.697Z,7.57
2022-11-21T13:18:01.883Z,7.56
2022-11-21T13:20:45.900Z,7.51
2022-11-21T13:23:36.970Z,7.57
2022-11-21T13:26:33.888Z,7.66
2022-11-21T13:29:14.546Z,7.73
2022-11-21T13:31:43.499Z,7.97
2022-11-21T13:34:32.415Z,8.07
2022-11-21T13:37:00.056Z,8.10
2022-11-21T13:39:31.781Z,8.01
2022-11-21T13:42:23.667Z,7.97
2022-11-21T13:44:51.776Z,7.69
2022-11-21T13:47:56.899Z,7.56
2022-11-21T13:51:11.494Z,7.59
2022-11-21T13:54:05.894Z,7.59
2022-11-21T13:57:25.569Z,7.58
2022-11-21T14:00:05.207Z,7.50
2022-11-21T14:02:53.465Z,7.51
2022-11-21T14:05:58.822Z,7.62
2022-11-21T14:08:29.009Z,7.46
2022-11-21T14:10:58.301Z,7.33
2022-11-21T14:13:33.675Z,7.30
2022-11-21T14:16:35.171Z,7.21
2022-11-21T14:19:03.860Z,7.15
2022-11-21T14:21:34.204Z,7.18
2022-11-21T14:24:13.275Z,7.17
2022-11-21T14:26:49.323Z,7.22
2022-11-21T14:29:40.469Z,7.08
2022-11-21T14:32:15.462Z,7.20
2022-11-21T14:34:42.672Z,7.17
2022-11-21T14:37:13.932Z,7.18
2022-11-21T14:39:44.943Z,7.14
2022-11-21T14:42:16.357Z,7.11
2022-11-21T14:44:44.122Z,7.16
2022-11-21T14:47:26.312Z,7.10
2022-11-21T14:49:57.028Z,6.87
2022-11-21T14:52:31.802Z,6.86
2022-11-21T14:57:50.245Z,6.94
2022-11-21T15:00:57.941Z,6.85
2022-11-21T15:03:21.862Z,6.81
2022-11-21T15:06:08.257Z,6.78
2022-11-21T15:12:02.533Z,6.68
2022-11-21T15:15:01.589Z,6.69
2022-11-21T15:17:30.344Z,6.71
2022-11-21T15:20:25.322Z,6.76
2022-11-21T15:23:00.222Z,6.67
2022-11-21T15:25:31.490Z,6.72
2022-11-21T15:28:02.450Z,6.56
2022-11-21T15:30:34.645Z,6.57
2022-11-21T15:33:19.926Z,6.56
2022-11-21T15:35:58.563Z,6.56
2022-11-21T15:38:47.222Z,6.42
2022-11-21T15:41:14.747Z,6.50
2022-11-21T15:43:46.476Z,6.51
2022-11-21T15:46:31.026Z,6.41
2022-11-21T15:49:31.570Z,6.50
2022-11-21T15:52:13.594Z,6.41
2022-11-21T15:54:40.846Z,6.46
2022-11-21T15:57:09.940Z,6.39
2022-11-21T15:59:37.272Z,6.38
2022-11-21T16:02:04.807Z,6.45
2022-11-21T16:04:32.127Z,6.48
2022-11-21T16:07:00.367Z,6.48
2022-11-21T16:09:29.641Z,6.33
2022-11-21T16:11:57.447Z,6.49
2022-11-21T16:14:24.715Z,6.41
2022-11-21T16:16:52.266Z,6.61
2022-11-21T16:19:19.479Z,6.54
2022-11-21T16:21:47.033Z,6.55
2022-11-21T16:24:14.341Z,6.51
2022-11-21T16:26:41.897Z,6.61
2022-11-21T16:29:11.667Z,6.50
2022-11-21T16:31:39.330Z,6.52
2022-11-21T16:34:06.625Z,6.44
2022-11-21T16:36:34.320Z,6.53
2022-11-21T16:39:08.703Z,6.49
2022-11-21T16:41:39.471Z,6.48
2022-11-21T16:44:14.255Z,6.46
2022-11-21T16:46:47.319Z,6.47
2022-11-21T16:49:14.892Z,6.52
2022-11-21T16:51:42.449Z,6.59
2022-11-21T16:54:09.945Z,6.63
2022-11-21T16:56:37.562Z,6.62
2022-11-21T16:59:04.995Z,6.65
2022-11-21T17:01:32.627Z,6.69
2022-11-21T17:04:00.010Z,6.65
2022-11-21T17:06:31.281Z,6.67
2022-11-21T17:09:02.168Z,6.68
2022-11-21T17:11:31.632Z,6.68
2022-11-21T17:14:06.451Z,6.49
2022-11-21T17:16:35.786Z,6.59
2022-11-21T17:19:04.757Z,6.49
2022-11-21T17:21:34.065Z,6.50
2022-11-21T17:24:01.266Z,6.50
2022-11-21T17:26:30.114Z,6.48
2022-11-21T17:29:01.028Z,6.37
2022-11-21T17:31:29.331Z,6.35
2022-11-21T17:33:58.730Z,6.47
2022-11-21T17:36:29.293Z,6.34
2022-11-21T17:38:56.878Z,6.28
2022-11-21T17:41:26.028Z,6.21
2022-11-21T17:43:58.501Z,6.23
2022-11-21T17:46:27.298Z,6.21
2022-11-21T17:48:58.955Z,6.14
2022-11-21T17:51:34.568Z,6.18
2022-11-21T17:54:02.655Z,6.28
2022-11-21T17:56:33.398Z,6.30
2022-11-21T17:59:01.244Z,6.31
2022-11-21T18:01:29.699Z,6.32
2022-11-21T18:04:11.661Z,6.30
2022-11-21T18:06:41.008Z,6.30
2022-11-21T18:09:11.040Z,6.34
2022-11-21T18:11:40.688Z,6.36
2022-11-21T18:14:10.868Z,6.48
2022-11-21T18:16:39.763Z,6.44
2022-11-21T18:19:11.197Z,6.43
2022-11-21T18:21:38.789Z,6.47
2022-11-21T18:24:06.549Z,6.49
2022-11-21T18:26:39.456Z,6.55
2022-11-21T18:31:57.309Z,6.67
2022-11-21T18:34:24.535Z,6.74
2022-11-21T18:36:53.744Z,6.78
2022-11-21T18:39:23.958Z,6.82
2022-11-21T18:41:51.580Z,6.80
2022-11-21T18:44:22.284Z,6.84
2022-11-21T18:46:50.775Z,6.84
2022-11-21T18:49:18.308Z,6.85
2022-11-21T18:51:46.411Z,6.87
2022-11-21T18:54:13.856Z,6.87
2022-11-21T18:56:41.463Z,6.82
2022-11-21T18:59:08.691Z,6.85
2022-11-21T19:01:39.515Z,6.80
2022-11-21T19:04:07.184Z,6.68
2022-11-21T19:06:35.126Z,6.72
2022-11-21T19:09:02.441Z,6.67
2022-11-21T19:11:30.573Z,6.72
2022-11-21T19:14:00.617Z,6.65
2022-11-21T19:16:31.613Z,6.66
2022-11-21T19:19:33.074Z,6.61
2022-11-21T19:21:47.310Z,6.60
2022-11-21T19:24:19.613Z,6.57
2022-11-21T19:26:47.315Z,6.65
2022-11-21T19:29:14.571Z,6.66
2022-11-21T19:31:45.775Z,6.71
2022-11-21T19:34:15.658Z,6.78
2022-11-21T19:36:44.929Z,6.83
2022-11-21T19:39:13.137Z,6.77
2022-11-21T19:41:40.871Z,6.73
2022-11-21T19:44:08.109Z,6.70
2022-11-21T19:46:39.827Z,6.62
2022-11-21T19:49:10.407Z,6.65
2022-11-21T19:51:41.749Z,6.54
2022-11-21T19:54:12.708Z,6.45
2022-11-21T19:56:40.700Z,6.42
2022-11-21T19:59:11.662Z,6.38
2022-11-21T20:01:39.869Z,6.29
2022-11-21T20:04:07.221Z,6.26
2022-11-21T20:06:46.206Z,6.25
2022-11-21T20:09:17.440Z,6.15
2022-11-21T20:11:49.370Z,6.16
2022-11-21T20:14:21.951Z,6.15
2022-11-21T20:16:52.997Z,6.18
2022-11-21T20:19:24.074Z,6.13
2022-11-21T20:21:52.837Z,6.19
2022-11-21T20:24:20.149Z,6.16
2022-11-21T20:26:47.840Z,6.04
2022-11-21T20:29:16.601Z,6.07
2022-11-21T20:31:44.573Z,6.07
2022-11-21T20:34:13.797Z,6.06
2022-11-21T20:36:42.649Z,6.12
2022-11-21T20:39:18.742Z,6.10
2022-11-21T20:41:48.270Z,6.20
2022-11-21T20:47:11.235Z,6.25
2022-11-21T20:49:38.555Z,6.26
2022-11-21T20:54:54.573Z,6.13
2022-11-21T20:57:22.672Z,5.99
2022-11-21T20:59:50.893Z,6.03
2022-11-21T21:02:19.323Z,6.06
2022-11-21T21:04:46.962Z,6.08
2022-11-21T21:07:14.580Z,6.09
2022-11-21T21:09:41.824Z,6.09
2022-11-21T21:12:09.413Z,6.07
2022-11-21T21:14:36.759Z,6.10
2022-11-21T21:17:04.270Z,6.13
2022-11-21T21:19:31.823Z,6.20
2022-11-21T21:21:59.654Z,6.22
2022-11-21T21:24:27.773Z,6.26
2022-11-21T21:26:55.241Z,6.35
2022-11-21T21:29:22.495Z,6.35
2022-11-21T21:31:52.327Z,6.32
2022-11-21T21:34:22.444Z,6.28
2022-11-21T21:36:51.216Z,6.07
2022-11-21T21:39:18.637Z,5.97
2022-11-21T21:41:47.255Z,5.71
2022-11-21T21:44:15.666Z,5.62
2022-11-21T21:46:43.731Z,5.50
2022-11-21T21:49:11.659Z,5.42
2022-11-21T21:51:40.112Z,5.32
2022-11-21T21:54:14.896Z,5.26
2022-11-21T21:56:42.569Z,5.25
2022-11-21T21:59:09.871Z,5.13
2022-11-21T22:01:37.648Z,5.02
2022-11-21T22:04:06.384Z,5.00
2022-11-21T22:06:35.067Z,4.94
2022-11-21T22:09:03.439Z,4.80
2022-11-21T22:11:37.159Z,4.81
2022-11-21T22:14:10.273Z,4.74
2022-11-21T22:16:37.805Z,4.73
2022-11-21T22:19:05.118Z,4.54
2022-11-21T22:21:36.302Z,4.50
2022-11-21T22:24:27.748Z,4.43
2022-11-21T22:26:55.668Z,4.38
2022-11-21T22:29:23.079Z,4.35
2022-11-21T22:31:51.634Z,4.36
2022-11-21T22:34:18.887Z,4.34
2022-11-21T22:36:46.939Z,4.33
2022-11-21T22:39:15.383Z,4.31
2022-11-21T22:41:42.827Z,4.25
2022-11-21T22:44:10.238Z,4.23
2022-11-21T22:46:37.848Z,4.18
2022-11-21T22:49:05.068Z,4.17
2022-11-21T22:51:32.613Z,4.17
2022-11-21T22:53:59.713Z,4.18
2022-11-21T22:56:27.359Z,4.13
2022-11-21T22:58:54.929Z,4.16
2022-11-21T23:01:25.753Z,4.14
2022-11-21T23:03:53.433Z,4.11
2022-11-21T23:06:24.337Z,4.09
2022-11-21T23:08:54.240Z,4.04
2022-11-21T23:11:27.817Z,4.01
2022-11-21T23:13:56.401Z,4.01
2022-11-21T23:16:25.103Z,3.99
2022-11-21T23:18:54.313Z,3.95
2022-11-21T23:21:22.718Z,3.96
2022-11-21T23:23:50.145Z,3.97
2022-11-21T23:26:17.870Z,4.01
2022-11-21T23:28:45.165Z,4.05
2022-11-21T23:31:12.766Z,4.12
2022-11-21T23:33:40.017Z,4.21
2022-11-21T23:36:07.634Z,4.25
2022-11-21T23:38:34.907Z,4.36
2022-11-21T23:41:02.398Z,4.38
2022-11-21T23:43:29.608Z,4.45
2022-11-21T23:45:57.259Z,4.47
2022-11-21T23:48:24.480Z,4.47
2022-11-21T23:50:52.320Z,4.54
2022-11-21T23:53:21.016Z,4.58
2022-11-21T23:55:48.953Z,4.60
2022-11-21T23:58:17.185Z,4.56
